This is the latest recevied weather packets stored in our database for station/object K4YY. If no packets are shown the sender has not sent any weather packets the latest 10 day(s).
| Time | Temp. | Humidity | Pressure | Rain* | Wind** | Luminosity | Snow |
|---|---|---|---|---|---|---|---|
| 1777744519 | 19.44° C | 90% | 1008.2 hPa | 0 mm | - | 271 W/m² | - |
| 1777742119 | 18.89° C | 90% | 1008.4 hPa | 0.25 mm | - | 174 W/m² | - |
| 1777738519 | 18.89° C | 89% | 1008.7 hPa | 1.52 mm | - | 57 W/m² | - |
| 1777736119 | 18.89° C | 89% | 1008.4 hPa | 2.79 mm | - | 205 W/m² | - |
| 1777735519 | 18.33° C | 89% | 1008.6 hPa | 6.1 mm | - | 127 W/m² | - |
| 1777725319 | 19.44° C | 79% | 1009 hPa | 0 mm | - | 37 W/m² | - |
| 1777720520 | 18.89° C | 78% | 1009.1 hPa | 0 mm | - | 11 W/m² | - |
| 1777711538 | 19.44° C | 79% | 1008.2 hPa | 0 mm | - | 0 W/m² | - |
| 1777709118 | 19.44° C | 79% | 1009.6 hPa | 0 mm | - | 0 W/m² | - |
| 1777708518 | 20° C | 79% | 1009.5 hPa | 0 mm | - | 0 W/m² | - |
| 1777706718 | 20.56° C | 77% | 1009.8 hPa | 0 mm | - | 0 W/m² | - |
| 1777704318 | 21.11° C | 77% | 1009.4 hPa | 0 mm | - | 0 W/m² | - |
| 1777702518 | 21.11° C | 76% | 1009.8 hPa | 0 mm | - | 0 W/m² | - |
| 1777701918 | 21.11° C | 76% | 1010.1 hPa | 0 mm | - | 0 W/m² | - |
| 1777695918 | 21.67° C | 72% | 1010.5 hPa | 0 mm | - | 0 W/m² | - |
| 1777695318 | 21.67° C | 72% | 1010.6 hPa | 0 mm | - | 0 W/m² | - |
| 1777694122 | 21.67° C | 72% | 1010.8 hPa | 0 mm | - | 0 W/m² | - |
| 1777693519 | 21.67° C | 72% | 1010.7 hPa | 0 mm | - | 0 W/m² | - |
| 1777690539 | 22.22° C | 71% | 1010.3 hPa | 0 mm | - | 0 W/m² | - |
| 1777683340 | 22.78° C | 80% | 1010.7 hPa | 0 mm | - | 0 W/m² | - |
| 1777682120 | 23.33° C | 78% | 1010.5 hPa | 0 mm | - | 0 W/m² | - |
| 1777673118 | 28.33° C | 58% | 1008.2 hPa | 0 mm | - | 117 W/m² | - |
| 1777671318 | 28.33° C | 55% | 1008.2 hPa | 0 mm | - | 49 W/m² | - |
| 1777669518 | 28.33° C | 55% | 1008 hPa | 0 mm | - | 263 W/m² | - |
| 1777667718 | 28.33° C | 59% | 1008.1 hPa | 0 mm | - | 630 W/m² | - |
* Rain latest hour (hover to see other rain measurements)
** Current wind speed in m/s (hover to see current wind gust speed)